Aérodrome :
LOGIN :

S'inscrire | Disclaimer

   EN    FR    IT 

 










Légende :    VFR   VFR Marginal   IFR   IFR Intensif   IFR Très Intensif
Visi : 
Plafond : 
>= 8 km
>= 3000ft
5 à 8 km
1000 à 3000 ft
1500m à 5 km
500 à 1000 ft
800 à 1500m
200 à 500 ft
< 800m
< 200 ft
Symboles :   Orages  Brouillard  Fortes neiges  Fortes précipitations  Vent > 20 kt
SIGMETs :   Divers  Orages  Givrage  Turbulence  Onde Orograph.  Cendres Volcan.







- Altitude de l'aérodrome : 584 ft
- Voir les cartes d'approche


LFPV - Villacoublay Vélizy

DERNIER METAR :
  • 161700Z AUTO 17005KT 150V210 9999 SCT038/// BKN086/// OVC100/// ///TCU 23/15 Q1019 BECMG NSC

METARs EXPIRÉS :
  • 161630Z AUTO 15004KT 090V190 9999 SCT038/// SCT047/// BKN072/// ///TCU 24/15 Q1019 BECMG NSC
  • 161600Z AUTO 13007KT 100V160 9999 SCT037 BKN046 BKN058 24/15 Q1020 NOSIG
  • 161530Z AUTO 16005KT 090V200 9999 SCT040 BKN066 BKN120 24/15 Q1020 NOSIG
  • 161500Z AUTO 18005KT 150V220 9999 FEW042 BKN048 BKN064 24/14 Q1020 NOSIG
  • 161430Z AUTO 16006KT 100V230 9999 SCT042 BKN049 BKN070 24/14 Q1020 NOSIG

TAF TAF LFPV
Valide du 16 à 15h jusqu'au 17 à 15h UTC


161400Z 1615/1715 18008KT CAVOK
TEMPO 1708/1715 -RA BKN012
Pas de NOTAMs connus pour ce terrain.



MET'MAP, la Météo Aéronautique d'un coup d'oeil ! - Copyright ORBIFLY Décembre 2007 - Disclaimer

ORBIFLY MET'MAP TEAM :

Programmation & Développement : Alexandra Zaïnal
Conception & Développement : Baudouin d'Aumeries
Co-Programmation & Développement : Marc-Olivier Méhu
Soutien technique & logistique : Manuel Goepfert

Contact : metmap@orbifly.com




SOURCES & CREDITS :

   NOAA